sensor_id;sensor_type;location;lat;lon;timestamp;pressure;altitude;pressure_sealevel;temperature;humidity
41636;BME280;27623;51.966;4.602;2022-12-18T00:01:40;63029.06;;;-1.20;100.00
41636;BME280;27623;51.966;4.602;2022-12-18T00:04:16;63024.19;;;-1.31;100.00
41636;BME280;27623;51.966;4.602;2022-12-18T00:06:46;62965.63;;;-1.40;100.00
41636;BME280;27623;51.966;4.602;2022-12-18T00:09:12;63011.38;;;-1.22;100.00
41636;BME280;27623;51.966;4.602;2022-12-18T00:11:37;62980.03;;;-1.47;100.00
41636;BME280;27623;51.966;4.602;2022-12-18T00:14:03;62991.06;;;-1.53;100.00
41636;BME280;27623;51.966;4.602;2022-12-18T00:16:29;62998.84;;;-1.36;100.00
41636;BME280;27623;51.966;4.602;2022-12-18T00:18:56;62964.97;;;-1.28;100.00
41636;BME280;27623;51.966;4.602;2022-12-18T00:21:22;63010.31;;;-1.23;100.00
41636;BME280;27623;51.966;4.602;2022-12-18T00:23:50;62997.38;;;-1.43;100.00
41636;BME280;27623;51.966;4.602;2022-12-18T00:26:21;63024.72;;;-1.05;100.00
41636;BME280;27623;51.966;4.602;2022-12-18T00:28:47;63028.59;;;-1.13;100.00
41636;BME280;27623;51.966;4.602;2022-12-18T00:31:15;63025.13;;;-1.26;100.00
41636;BME280;27623;51.966;4.602;2022-12-18T00:33:41;62980.50;;;-1.28;100.00
41636;BME280;27623;51.966;4.602;2022-12-18T00:36:15;62961.31;;;-1.44;100.00
41636;BME280;27623;51.966;4.602;2022-12-18T00:38:41;62971.03;;;-1.27;100.00
41636;BME280;27623;51.966;4.602;2022-12-18T00:41:08;62933.50;;;-1.42;100.00
41636;BME280;27623;51.966;4.602;2022-12-18T00:43:37;62947.53;;;-1.54;100.00
41636;BME280;27623;51.966;4.602;2022-12-18T00:46:03;62969.78;;;-1.64;100.00
41636;BME280;27623;51.966;4.602;2022-12-18T00:48:29;63009.25;;;-1.57;100.00
41636;BME280;27623;51.966;4.602;2022-12-18T00:50:55;62954.97;;;-1.61;100.00
41636;BME280;27623;51.966;4.602;2022-12-18T00:53:20;62945.84;;;-1.70;100.00
41636;BME280;27623;51.966;4.602;2022-12-18T00:55:46;62929.66;;;-1.66;100.00
41636;BME280;27623;51.966;4.602;2022-12-18T00:58:14;62957.72;;;-1.52;100.00
41636;BME280;27623;51.966;4.602;2022-12-18T01:00:42;62963.59;;;-1.53;100.00
41636;BME280;27623;51.966;4.602;2022-12-18T01:03:07;62955.91;;;-1.56;100.00
41636;BME280;27623;51.966;4.602;2022-12-18T01:05:39;62987.28;;;-1.57;100.00
41636;BME280;27623;51.966;4.602;2022-12-18T01:08:04;63010.38;;;-1.42;100.00
41636;BME280;27623;51.966;4.602;2022-12-18T01:10:29;62959.69;;;-1.52;100.00
41636;BME280;27623;51.966;4.602;2022-12-18T01:12:55;62961.38;;;-1.69;100.00
41636;BME280;27623;51.966;4.602;2022-12-18T01:15:23;62973.84;;;-1.36;100.00
41636;BME280;27623;51.966;4.602;2022-12-18T01:17:48;62974.75;;;-1.64;100.00
41636;BME280;27623;51.966;4.602;2022-12-18T01:20:14;62976.22;;;-1.58;100.00
41636;BME280;27623;51.966;4.602;2022-12-18T01:22:40;63005.84;;;-1.30;100.00
41636;BME280;27623;51.966;4.602;2022-12-18T01:25:05;62988.72;;;-1.25;100.00
41636;BME280;27623;51.966;4.602;2022-12-18T01:27:33;63019.41;;;-1.29;100.00
41636;BME280;27623;51.966;4.602;2022-12-18T01:29:58;62985.88;;;-1.56;100.00
41636;BME280;27623;51.966;4.602;2022-12-18T01:32:24;62989.41;;;-1.62;100.00
41636;BME280;27623;51.966;4.602;2022-12-18T01:34:49;62967.09;;;-1.66;100.00
41636;BME280;27623;51.966;4.602;2022-12-18T01:37:14;62999.97;;;-1.54;100.00
41636;BME280;27623;51.966;4.602;2022-12-18T01:39:40;62961.78;;;-1.57;100.00
41636;BME280;27623;51.966;4.602;2022-12-18T01:42:14;62977.31;;;-1.57;100.00
41636;BME280;27623;51.966;4.602;2022-12-18T01:47:48;63006.44;;;-1.48;100.00
41636;BME280;27623;51.966;4.602;2022-12-18T01:52:45;63005.09;;;-1.33;100.00
41636;BME280;27623;51.966;4.602;2022-12-18T01:55:14;63005.44;;;-1.35;100.00
41636;BME280;27623;51.966;4.602;2022-12-18T01:57:41;63031.69;;;-1.31;100.00
41636;BME280;27623;51.966;4.602;2022-12-18T02:00:18;63031.72;;;-1.24;100.00
41636;BME280;27623;51.966;4.602;2022-12-18T02:02:47;62928.38;;;-2.03;100.00
41636;BME280;27623;51.966;4.602;2022-12-18T02:05:21;62956.72;;;-1.71;100.00
41636;BME280;27623;51.966;4.602;2022-12-18T02:07:58;62931.06;;;-1.67;100.00
41636;BME280;27623;51.966;4.602;2022-12-18T02:10:38;62987.88;;;-1.49;100.00
41636;BME280;27623;51.966;4.602;2022-12-18T02:13:21;62979.81;;;-1.57;100.00
41636;BME280;27623;51.966;4.602;2022-12-18T02:16:16;62972.09;;;-1.66;100.00
41636;BME280;27623;51.966;4.602;2022-12-18T02:18:48;62950.22;;;-1.85;100.00
41636;BME280;27623;51.966;4.602;2022-12-18T02:21:31;62927.25;;;-1.78;100.00
41636;BME280;27623;51.966;4.602;2022-12-18T02:24:04;62962.22;;;-1.78;100.00
41636;BME280;27623;51.966;4.602;2022-12-18T02:26:50;62998.06;;;-1.47;100.00
41636;BME280;27623;51.966;4.602;2022-12-18T02:29:21;63004.66;;;-1.45;100.00
41636;BME280;27623;51.966;4.602;2022-12-18T02:31:52;62944.41;;;-2.02;100.00
41636;BME280;27623;51.966;4.602;2022-12-18T02:34:22;62916.41;;;-2.10;100.00
41636;BME280;27623;51.966;4.602;2022-12-18T02:36:49;62928.41;;;-1.96;100.00
41636;BME280;27623;51.966;4.602;2022-12-18T02:39:16;62921.13;;;-2.19;100.00
41636;BME280;27623;51.966;4.602;2022-12-18T02:41:43;62932.94;;;-2.15;100.00
41636;BME280;27623;51.966;4.602;2022-12-18T02:44:13;62931.75;;;-2.04;100.00
41636;BME280;27623;51.966;4.602;2022-12-18T02:46:40;62921.94;;;-2.09;100.00
41636;BME280;27623;51.966;4.602;2022-12-18T02:49:12;62958.28;;;-1.77;100.00
41636;BME280;27623;51.966;4.602;2022-12-18T02:51:52;62960.44;;;-1.75;100.00
41636;BME280;27623;51.966;4.602;2022-12-18T02:54:50;62927.91;;;-1.89;100.00
41636;BME280;27623;51.966;4.602;2022-12-18T03:00:24;62880.41;;;-2.36;100.00
41636;BME280;27623;51.966;4.602;2022-12-18T03:02:59;62916.69;;;-2.45;100.00
41636;BME280;27623;51.966;4.602;2022-12-18T03:05:45;62869.59;;;-2.61;100.00
41636;BME280;27623;51.966;4.602;2022-12-18T03:08:22;62883.22;;;-2.46;100.00
41636;BME280;27623;51.966;4.602;2022-12-18T03:10:55;62936.31;;;-2.17;100.00
41636;BME280;27623;51.966;4.602;2022-12-18T03:13:29;62945.22;;;-2.18;100.00
41636;BME280;27623;51.966;4.602;2022-12-18T03:15:57;62904.09;;;-2.07;100.00
41636;BME280;27623;51.966;4.602;2022-12-18T03:18:54;62889.19;;;-2.26;100.00
41636;BME280;27623;51.966;4.602;2022-12-18T03:21:22;62897.66;;;-2.13;100.00
41636;BME280;27623;51.966;4.602;2022-12-18T03:23:52;62927.75;;;-1.85;100.00
41636;BME280;27623;51.966;4.602;2022-12-18T03:26:22;62910.75;;;-2.31;100.00
41636;BME280;27623;51.966;4.602;2022-12-18T03:28:52;62901.88;;;-2.23;100.00
41636;BME280;27623;51.966;4.602;2022-12-18T03:31:20;62979.63;;;-1.59;100.00
41636;BME280;27623;51.966;4.602;2022-12-18T03:33:55;62952.28;;;-1.71;100.00
41636;BME280;27623;51.966;4.602;2022-12-18T03:36:24;62928.88;;;-1.77;100.00
41636;BME280;27623;51.966;4.602;2022-12-18T03:38:50;62905.00;;;-2.09;100.00
41636;BME280;27623;51.966;4.602;2022-12-18T03:46:29;62897.19;;;-2.32;100.00
41636;BME280;27623;51.966;4.602;2022-12-18T03:51:43;62925.19;;;-1.99;100.00
41636;BME280;27623;51.966;4.602;2022-12-18T03:54:10;62911.56;;;-2.14;100.00
41636;BME280;27623;51.966;4.602;2022-12-18T03:56:40;62870.59;;;-2.67;100.00
41636;BME280;27623;51.966;4.602;2022-12-18T03:59:08;62848.50;;;-2.43;100.00
41636;BME280;27623;51.966;4.602;2022-12-18T04:01:43;62851.31;;;-2.45;100.00
41636;BME280;27623;51.966;4.602;2022-12-18T04:04:12;62909.88;;;-2.30;100.00
41636;BME280;27623;51.966;4.602;2022-12-18T04:06:41;62913.38;;;-2.36;100.00
41636;BME280;27623;51.966;4.602;2022-12-18T04:09:10;62864.88;;;-2.44;100.00
41636;BME280;27623;51.966;4.602;2022-12-18T04:11:35;62872.44;;;-2.30;100.00
41636;BME280;27623;51.966;4.602;2022-12-18T04:14:00;62893.69;;;-2.19;100.00
41636;BME280;27623;51.966;4.602;2022-12-18T04:16:27;62931.59;;;-2.26;100.00
41636;BME280;27623;51.966;4.602;2022-12-18T04:18:52;62890.19;;;-2.06;100.00
41636;BME280;27623;51.966;4.602;2022-12-18T04:21:18;62926.19;;;-1.79;100.00
41636;BME280;27623;51.966;4.602;2022-12-18T04:23:44;62969.34;;;-1.76;100.00
41636;BME280;27623;51.966;4.602;2022-12-18T04:26:10;62964.25;;;-1.64;100.00
41636;BME280;27623;51.966;4.602;2022-12-18T04:28:35;62942.53;;;-1.54;100.00
41636;BME280;27623;51.966;4.602;2022-12-18T04:31:01;62929.22;;;-2.12;100.00
41636;BME280;27623;51.966;4.602;2022-12-18T04:33:27;62894.34;;;-2.30;100.00
41636;BME280;27623;51.966;4.602;2022-12-18T04:35:52;62917.97;;;-2.41;100.00
41636;BME280;27623;51.966;4.602;2022-12-18T04:38:18;62863.44;;;-2.43;100.00
41636;BME280;27623;51.966;4.602;2022-12-18T04:40:43;62879.63;;;-2.47;100.00
41636;BME280;27623;51.966;4.602;2022-12-18T04:43:09;62926.28;;;-2.24;100.00
41636;BME280;27623;51.966;4.602;2022-12-18T04:45:34;62919.44;;;-2.09;100.00
41636;BME280;27623;51.966;4.602;2022-12-18T04:48:01;62889.09;;;-2.14;100.00
41636;BME280;27623;51.966;4.602;2022-12-18T04:50:27;62905.63;;;-2.20;100.00
41636;BME280;27623;51.966;4.602;2022-12-18T04:52:53;62914.44;;;-2.09;100.00
41636;BME280;27623;51.966;4.602;2022-12-18T04:55:19;62943.44;;;-1.89;100.00
41636;BME280;27623;51.966;4.602;2022-12-18T04:57:45;62990.22;;;-1.78;99.60
41636;BME280;27623;51.966;4.602;2022-12-18T05:00:11;62982.44;;;-1.68;98.67
41636;BME280;27623;51.966;4.602;2022-12-18T05:02:38;62926.53;;;-2.14;99.31
41636;BME280;27623;51.966;4.602;2022-12-18T05:05:04;62939.63;;;-1.99;98.80
41636;BME280;27623;51.966;4.602;2022-12-18T05:07:30;62912.59;;;-2.20;97.47
41636;BME280;27623;51.966;4.602;2022-12-18T05:09:56;62914.06;;;-2.14;99.12
41636;BME280;27623;51.966;4.602;2022-12-18T05:12:22;62904.19;;;-2.52;100.00
41636;BME280;27623;51.966;4.602;2022-12-18T05:14:47;62910.69;;;-2.05;99.81
41636;BME280;27623;51.966;4.602;2022-12-18T05:17:13;62940.69;;;-1.98;98.37
41636;BME280;27623;51.966;4.602;2022-12-18T05:19:39;62959.84;;;-1.83;97.48
41636;BME280;27623;51.966;4.602;2022-12-18T05:22:05;62937.44;;;-1.76;96.64
41636;BME280;27623;51.966;4.602;2022-12-18T05:24:30;62956.34;;;-1.77;95.10
41636;BME280;27623;51.966;4.602;2022-12-18T05:26:56;62946.75;;;-1.71;95.18
41636;BME280;27623;51.966;4.602;2022-12-18T05:29:21;62948.50;;;-1.75;94.07
41636;BME280;27623;51.966;4.602;2022-12-18T05:31:47;62951.03;;;-1.67;94.09
41636;BME280;27623;51.966;4.602;2022-12-18T05:34:12;62985.50;;;-1.61;93.22
41636;BME280;27623;51.966;4.602;2022-12-18T05:36:38;62969.94;;;-1.68;93.53
41636;BME280;27623;51.966;4.602;2022-12-18T05:39:03;62999.50;;;-1.74;93.23
41636;BME280;27623;51.966;4.602;2022-12-18T05:41:30;62920.78;;;-1.91;94.08
41636;BME280;27623;51.966;4.602;2022-12-18T05:43:55;62960.03;;;-1.87;94.80
41636;BME280;27623;51.966;4.602;2022-12-18T05:46:20;62948.25;;;-1.84;94.11
41636;BME280;27623;51.966;4.602;2022-12-18T05:48:46;62917.69;;;-1.99;94.39
41636;BME280;27623;51.966;4.602;2022-12-18T05:51:15;62867.28;;;-2.25;96.03
41636;BME280;27623;51.966;4.602;2022-12-18T05:53:41;62882.88;;;-2.44;96.71
41636;BME280;27623;51.966;4.602;2022-12-18T05:56:16;62863.19;;;-2.60;97.44
41636;BME280;27623;51.966;4.602;2022-12-18T05:58:42;62852.00;;;-2.56;97.06
41636;BME280;27623;51.966;4.602;2022-12-18T06:01:19;62883.84;;;-2.83;97.37
41636;BME280;27623;51.966;4.602;2022-12-18T06:03:45;62806.88;;;-2.99;98.87
41636;BME280;27623;51.966;4.602;2022-12-18T06:06:16;62831.47;;;-2.90;99.94
41636;BME280;27623;51.966;4.602;2022-12-18T06:08:42;62831.09;;;-2.95;99.14
41636;BME280;27623;51.966;4.602;2022-12-18T06:11:08;62822.91;;;-2.91;99.91
41636;BME280;27623;51.966;4.602;2022-12-18T06:13:33;62870.53;;;-2.81;99.62
41636;BME280;27623;51.966;4.602;2022-12-18T06:16:02;62875.84;;;-2.57;98.10
41636;BME280;27623;51.966;4.602;2022-12-18T06:18:27;62880.16;;;-2.53;97.80
41636;BME280;27623;51.966;4.602;2022-12-18T06:20:56;62890.16;;;-2.46;96.48
41636;BME280;27623;51.966;4.602;2022-12-18T06:23:23;62866.88;;;-2.70;95.91
41636;BME280;27623;51.966;4.602;2022-12-18T06:25:49;62902.63;;;-2.46;96.71
41636;BME280;27623;51.966;4.602;2022-12-18T06:28:14;62867.09;;;-2.61;96.09
41636;BME280;27623;51.966;4.602;2022-12-18T06:30:39;62872.56;;;-2.67;96.45
41636;BME280;27623;51.966;4.602;2022-12-18T06:33:05;62828.63;;;-2.88;96.90
41636;BME280;27623;51.966;4.602;2022-12-18T06:35:31;62834.25;;;-2.73;96.14
41636;BME280;27623;51.966;4.602;2022-12-18T06:37:57;62851.66;;;-2.80;96.25
41636;BME280;27623;51.966;4.602;2022-12-18T06:40:22;62806.09;;;-3.09;96.42
41636;BME280;27623;51.966;4.602;2022-12-18T06:42:48;62775.09;;;-3.17;97.88
41636;BME280;27623;51.966;4.602;2022-12-18T06:45:13;62823.44;;;-2.97;97.86
41636;BME280;27623;51.966;4.602;2022-12-18T06:47:40;62805.66;;;-3.21;98.12
41636;BME280;27623;51.966;4.602;2022-12-18T06:50:05;62829.00;;;-3.16;97.32
41636;BME280;27623;51.966;4.602;2022-12-18T06:52:32;62803.91;;;-3.18;97.94
41636;BME280;27623;51.966;4.602;2022-12-18T06:54:57;62807.03;;;-3.29;97.52
41636;BME280;27623;51.966;4.602;2022-12-18T06:57:23;62835.84;;;-3.04;98.84
41636;BME280;27623;51.966;4.602;2022-12-18T06:59:48;62831.19;;;-2.81;96.32
41636;BME280;27623;51.966;4.602;2022-12-18T07:02:13;62815.75;;;-3.26;96.11
41636;BME280;27623;51.966;4.602;2022-12-18T07:04:39;62768.22;;;-3.35;96.42
41636;BME280;27623;51.966;4.602;2022-12-18T07:07:05;62770.91;;;-3.33;96.96
41636;BME280;27623;51.966;4.602;2022-12-18T07:09:30;62772.59;;;-3.43;98.42
41636;BME280;27623;51.966;4.602;2022-12-18T07:11:55;62736.75;;;-3.63;98.43
41636;BME280;27623;51.966;4.602;2022-12-18T07:14:21;62736.69;;;-3.70;97.83
41636;BME280;27623;51.966;4.602;2022-12-18T07:16:46;62728.59;;;-3.85;98.44
41636;BME280;27623;51.966;4.602;2022-12-18T07:19:12;62714.41;;;-3.82;99.61
41636;BME280;27623;51.966;4.602;2022-12-18T07:21:37;62759.28;;;-3.67;100.00
41636;BME280;27623;51.966;4.602;2022-12-18T07:24:03;62758.16;;;-3.75;99.57
41636;BME280;27623;51.966;4.602;2022-12-18T07:26:30;62740.94;;;-3.73;99.62
41636;BME280;27623;51.966;4.602;2022-12-18T07:28:58;62721.09;;;-3.92;100.00
41636;BME280;27623;51.966;4.602;2022-12-18T07:31:25;62770.84;;;-3.40;100.00
41636;BME280;27623;51.966;4.602;2022-12-18T07:33:51;62763.59;;;-3.63;99.74
41636;BME280;27623;51.966;4.602;2022-12-18T07:36:17;62762.56;;;-3.57;100.00
41636;BME280;27623;51.966;4.602;2022-12-18T07:38:43;62745.81;;;-3.61;99.59
41636;BME280;27623;51.966;4.602;2022-12-18T07:41:13;62769.00;;;-3.51;98.43
41636;BME280;27623;51.966;4.602;2022-12-18T07:43:40;62718.44;;;-3.87;99.51
41636;BME280;27623;51.966;4.602;2022-12-18T07:46:06;62723.28;;;-3.83;100.00
41636;BME280;27623;51.966;4.602;2022-12-18T07:48:33;62768.69;;;-3.68;100.00
41636;BME280;27623;51.966;4.602;2022-12-18T07:51:00;62799.50;;;-3.36;99.86
41636;BME280;27623;51.966;4.602;2022-12-18T07:53:26;62751.03;;;-3.52;98.91
41636;BME280;27623;51.966;4.602;2022-12-18T07:56:03;62798.78;;;-3.39;98.87
41636;BME280;27623;51.966;4.602;2022-12-18T07:58:29;62765.09;;;-3.50;99.09
41636;BME280;27623;51.966;4.602;2022-12-18T08:01:03;62794.28;;;-3.20;99.47
41636;BME280;27623;51.966;4.602;2022-12-18T08:03:29;62751.41;;;-3.47;98.35
41636;BME280;27623;51.966;4.602;2022-12-18T08:05:58;62775.06;;;-3.76;99.00
41636;BME280;27623;51.966;4.602;2022-12-18T08:08:24;62770.00;;;-3.83;100.00
41636;BME280;27623;51.966;4.602;2022-12-18T08:10:50;62772.59;;;-3.43;100.00
41636;BME280;27623;51.966;4.602;2022-12-18T08:13:15;62762.78;;;-3.48;99.46
41636;BME280;27623;51.966;4.602;2022-12-18T08:15:41;62749.88;;;-3.67;99.76
41636;BME280;27623;51.966;4.602;2022-12-18T08:18:06;62744.59;;;-3.84;99.66
41636;BME280;27623;51.966;4.602;2022-12-18T08:20:31;62752.00;;;-3.65;100.00
41636;BME280;27623;51.966;4.602;2022-12-18T08:22:57;62738.44;;;-3.73;100.00
41636;BME280;27623;51.966;4.602;2022-12-18T08:25:23;62736.31;;;-3.75;100.00
41636;BME280;27623;51.966;4.602;2022-12-18T08:27:48;62724.44;;;-3.67;100.00
41636;BME280;27623;51.966;4.602;2022-12-18T08:30:14;62774.28;;;-3.60;100.00
41636;BME280;27623;51.966;4.602;2022-12-18T08:32:42;62765.03;;;-3.83;100.00
41636;BME280;27623;51.966;4.602;2022-12-18T08:35:08;62773.34;;;-3.66;100.00
41636;BME280;27623;51.966;4.602;2022-12-18T08:37:33;62764.31;;;-3.60;100.00
41636;BME280;27623;51.966;4.602;2022-12-18T08:39:59;62798.44;;;-3.63;100.00
41636;BME280;27623;51.966;4.602;2022-12-18T08:42:25;62750.00;;;-3.46;100.00
41636;BME280;27623;51.966;4.602;2022-12-18T08:45:09;62814.75;;;-3.20;100.00
41636;BME280;27623;51.966;4.602;2022-12-18T08:47:37;62794.03;;;-3.30;100.00
41636;BME280;27623;51.966;4.602;2022-12-18T08:50:05;62794.69;;;-3.15;100.00
41636;BME280;27623;51.966;4.602;2022-12-18T08:52:32;62779.66;;;-2.96;99.53
41636;BME280;27623;51.966;4.602;2022-12-18T08:54:57;62828.34;;;-3.04;99.42
41636;BME280;27623;51.966;4.602;2022-12-18T08:57:23;62830.91;;;-2.97;99.36
41636;BME280;27623;51.966;4.602;2022-12-18T08:59:48;62827.88;;;-2.98;99.25
41636;BME280;27623;51.966;4.602;2022-12-18T09:02:14;62831.31;;;-2.85;98.91
41636;BME280;27623;51.966;4.602;2022-12-18T09:04:39;62878.28;;;-2.64;99.40
41636;BME280;27623;51.966;4.602;2022-12-18T09:07:05;62864.31;;;-2.52;98.80
41636;BME280;27623;51.966;4.602;2022-12-18T09:09:30;62911.47;;;-2.28;97.26
41636;BME280;27623;51.966;4.602;2022-12-18T09:11:55;62861.28;;;-2.78;98.10
41636;BME280;27623;51.966;4.602;2022-12-18T09:14:21;62869.59;;;-2.61;97.89
41636;BME280;27623;51.966;4.602;2022-12-18T09:16:46;62875.69;;;-2.53;97.66
41636;BME280;27623;51.966;4.602;2022-12-18T09:19:12;62837.94;;;-2.84;98.78
41636;BME280;27623;51.966;4.602;2022-12-18T09:21:38;62836.38;;;-2.78;99.66
41636;BME280;27623;51.966;4.602;2022-12-18T09:24:05;62852.06;;;-2.75;99.40
41636;BME280;27623;51.966;4.602;2022-12-18T09:26:33;62872.97;;;-2.88;99.66
41636;BME280;27623;51.966;4.602;2022-12-18T09:29:01;62814.53;;;-2.96;99.72
41636;BME280;27623;51.966;4.602;2022-12-18T09:31:27;62850.50;;;-2.95;100.00
41636;BME280;27623;51.966;4.602;2022-12-18T09:33:54;62856.06;;;-2.88;100.00
41636;BME280;27623;51.966;4.602;2022-12-18T09:36:20;62829.03;;;-3.08;100.00
41636;BME280;27623;51.966;4.602;2022-12-18T09:38:46;62838.78;;;-2.92;100.00
41636;BME280;27623;51.966;4.602;2022-12-18T09:44:05;62870.53;;;-2.81;100.00
41636;BME280;27623;51.966;4.602;2022-12-18T09:46:45;62894.16;;;-2.59;100.00
41636;BME280;27623;51.966;4.602;2022-12-18T09:49:15;62881.56;;;-2.54;100.00
41636;BME280;27623;51.966;4.602;2022-12-18T09:52:14;62865.06;;;-2.42;100.00
41636;BME280;27623;51.966;4.602;2022-12-18T09:54:44;62797.13;;;-2.56;100.00
41636;BME280;27623;51.966;4.602;2022-12-18T09:57:17;62884.44;;;-2.49;100.00
41636;BME280;27623;51.966;4.602;2022-12-18T09:59:47;62888.53;;;-2.48;100.00
41636;BME280;27623;51.966;4.602;2022-12-18T10:02:20;62884.28;;;-2.45;100.00
41636;BME280;27623;51.966;4.602;2022-12-18T10:05:06;62848.63;;;-2.55;100.00
41636;BME280;27623;51.966;4.602;2022-12-18T10:10:22;62895.03;;;-2.34;100.00
41636;BME280;27623;51.966;4.602;2022-12-18T10:21:00;62868.41;;;-2.50;100.00
41636;BME280;27623;51.966;4.602;2022-12-18T10:23:38;62867.56;;;-2.42;100.00
41636;BME280;27623;51.966;4.602;2022-12-18T10:26:10;62821.38;;;-2.85;100.00
41636;BME280;27623;51.966;4.602;2022-12-18T10:28:37;62846.13;;;-2.81;100.00
41636;BME280;27623;51.966;4.602;2022-12-18T10:31:14;62867.63;;;-2.60;100.00
41636;BME280;27623;51.966;4.602;2022-12-18T10:33:42;62838.66;;;-2.48;100.00
41636;BME280;27623;51.966;4.602;2022-12-18T10:36:08;62888.63;;;-2.33;100.00
41636;BME280;27623;51.966;4.602;2022-12-18T10:38:33;62872.34;;;-2.44;100.00
41636;BME280;27623;51.966;4.602;2022-12-18T10:43:38;62864.25;;;-2.26;100.00
41636;BME280;27623;51.966;4.602;2022-12-18T10:46:12;62927.56;;;-2.20;100.00
41636;BME280;27623;51.966;4.602;2022-12-18T10:51:39;62902.47;;;-2.16;100.00
41636;BME280;27623;51.966;4.602;2022-12-18T10:54:24;62897.00;;;-2.02;100.00
41636;BME280;27623;51.966;4.602;2022-12-18T10:56:50;62937.44;;;-2.09;100.00
41636;BME280;27623;51.966;4.602;2022-12-18T10:59:17;62923.84;;;-2.17;100.00
41636;BME280;27623;51.966;4.602;2022-12-18T11:01:47;62932.31;;;-1.97;100.00
41636;BME280;27623;51.966;4.602;2022-12-18T11:04:24;62926.59;;;-2.00;100.00
41636;BME280;27623;51.966;4.602;2022-12-18T11:09:33;62896.06;;;-2.08;100.00
41636;BME280;27623;51.966;4.602;2022-12-18T11:12:15;62956.78;;;-1.90;100.00
41636;BME280;27623;51.966;4.602;2022-12-18T11:14:46;62916.44;;;-2.02;100.00
41636;BME280;27623;51.966;4.602;2022-12-18T11:17:28;62930.75;;;-1.91;100.00
41636;BME280;27623;51.966;4.602;2022-12-18T11:20:00;62938.97;;;-1.88;100.00
41636;BME280;27623;51.966;4.602;2022-12-18T11:22:28;62976.56;;;-1.67;100.00
41636;BME280;27623;51.966;4.602;2022-12-18T11:24:58;62991.91;;;-1.62;100.00
41636;BME280;27623;51.966;4.602;2022-12-18T11:27:25;62944.50;;;-1.55;100.00
41636;BME280;27623;51.966;4.602;2022-12-18T11:29:51;62953.53;;;-1.67;100.00
41636;BME280;27623;51.966;4.602;2022-12-18T11:32:35;62989.66;;;-1.52;100.00
41636;BME280;27623;51.966;4.602;2022-12-18T11:37:31;62927.91;;;-1.56;100.00
41636;BME280;27623;51.966;4.602;2022-12-18T11:40:03;62985.84;;;-1.63;100.00
41636;BME280;27623;51.966;4.602;2022-12-18T11:53:03;62997.88;;;-1.49;100.00
41636;BME280;27623;51.966;4.602;2022-12-18T11:55:39;62977.78;;;-1.38;100.00
41636;BME280;27623;51.966;4.602;2022-12-18T11:58:18;63028.53;;;-1.20;100.00
41636;BME280;27623;51.966;4.602;2022-12-18T12:11:50;62994.25;;;-1.57;100.00
41636;BME280;27623;51.966;4.602;2022-12-18T12:14:36;62970.41;;;-1.49;100.00
41636;BME280;27623;51.966;4.602;2022-12-18T12:36:53;62990.72;;;-1.18;100.00
41636;BME280;27623;51.966;4.602;2022-12-18T12:39:21;62980.72;;;-1.18;100.00
41636;BME280;27623;51.966;4.602;2022-12-18T12:41:48;63009.88;;;-1.02;100.00
41636;BME280;27623;51.966;4.602;2022-12-18T12:44:48;63011.28;;;-1.11;100.00
41636;BME280;27623;51.966;4.602;2022-12-18T12:47:35;63023.38;;;-1.16;100.00
41636;BME280;27623;51.966;4.602;2022-12-18T12:50:06;63012.03;;;-1.00;100.00
41636;BME280;27623;51.966;4.602;2022-12-18T12:52:45;63045.16;;;-1.19;100.00
41636;BME280;27623;51.966;4.602;2022-12-18T12:55:18;63030.97;;;-1.01;100.00
41636;BME280;27623;51.966;4.602;2022-12-18T12:58:00;63004.31;;;-1.10;100.00
41636;BME280;27623;51.966;4.602;2022-12-18T13:00:35;63006.81;;;-1.10;100.00
41636;BME280;27623;51.966;4.602;2022-12-18T13:08:29;63051.81;;;-1.10;100.00
41636;BME280;27623;51.966;4.602;2022-12-18T13:10:55;62996.78;;;-1.17;100.00
41636;BME280;27623;51.966;4.602;2022-12-18T13:13:54;63021.97;;;-1.15;100.00
41636;BME280;27623;51.966;4.602;2022-12-18T13:16:24;63043.28;;;-1.04;100.00
41636;BME280;27623;51.966;4.602;2022-12-18T13:18:54;63001.94;;;-1.22;100.00
41636;BME280;27623;51.966;4.602;2022-12-18T13:21:30;63012.16;;;-1.12;100.00
41636;BME280;27623;51.966;4.602;2022-12-18T13:24:15;62998.41;;;-1.16;100.00
41636;BME280;27623;51.966;4.602;2022-12-18T13:26:45;63037.91;;;-1.02;100.00
41636;BME280;27623;51.966;4.602;2022-12-18T13:29:11;63017.38;;;-1.02;100.00
41636;BME280;27623;51.966;4.602;2022-12-18T13:34:28;63071.59;;;-0.87;100.00
41636;BME280;27623;51.966;4.602;2022-12-18T13:39:57;63026.47;;;-1.08;100.00
41636;BME280;27623;51.966;4.602;2022-12-18T13:42:34;63022.91;;;-1.02;100.00
41636;BME280;27623;51.966;4.602;2022-12-18T13:45:42;63018.44;;;-1.09;100.00
41636;BME280;27623;51.966;4.602;2022-12-18T13:48:21;63023.97;;;-1.08;100.00
41636;BME280;27623;51.966;4.602;2022-12-18T13:50:56;62998.13;;;-0.99;100.00
41636;BME280;27623;51.966;4.602;2022-12-18T13:53:32;63066.03;;;-0.87;100.00
41636;BME280;27623;51.966;4.602;2022-12-18T13:55:59;63065.13;;;-0.93;100.00
41636;BME280;27623;51.966;4.602;2022-12-18T13:58:24;63050.94;;;-1.01;100.00
41636;BME280;27623;51.966;4.602;2022-12-18T14:00:50;63017.56;;;-1.00;100.00
41636;BME280;27623;51.966;4.602;2022-12-18T14:03:22;63041.59;;;-0.87;100.00
41636;BME280;27623;51.966;4.602;2022-12-18T14:05:56;63049.19;;;-0.98;100.00
41636;BME280;27623;51.966;4.602;2022-12-18T14:08:25;63015.25;;;-1.05;100.00
41636;BME280;27623;51.966;4.602;2022-12-18T14:10:52;63015.31;;;-0.90;100.00
41636;BME280;27623;51.966;4.602;2022-12-18T14:13:26;63053.34;;;-0.90;100.00
41636;BME280;27623;51.966;4.602;2022-12-18T14:15:53;63042.41;;;-0.95;100.00
41636;BME280;27623;51.966;4.602;2022-12-18T14:18:29;63057.91;;;-1.02;100.00
41636;BME280;27623;51.966;4.602;2022-12-18T14:20:59;63073.88;;;-0.89;100.00
41636;BME280;27623;51.966;4.602;2022-12-18T14:23:34;63021.25;;;-0.78;100.00
41636;BME280;27623;51.966;4.602;2022-12-18T14:28:45;63062.34;;;-0.77;100.00
41636;BME280;27623;51.966;4.602;2022-12-18T14:31:23;63086.59;;;-0.80;100.00
41636;BME280;27623;51.966;4.602;2022-12-18T14:33:49;63057.66;;;-0.86;100.00
41636;BME280;27623;51.966;4.602;2022-12-18T14:36:22;63031.41;;;-0.82;100.00
41636;BME280;27623;51.966;4.602;2022-12-18T14:38:53;63020.31;;;-0.90;100.00
41636;BME280;27623;51.966;4.602;2022-12-18T14:41:20;63026.38;;;-0.89;100.00